createdAt,value
2023-02-09T14:30:17.445Z,15.40
2023-02-09T14:33:51.164Z,13.00
2023-02-09T14:37:31.621Z,14.90
2023-02-09T14:49:59.946Z,11.60
2023-02-09T14:53:22.030Z,13.50
2023-02-09T14:56:49.165Z,13.30
2023-02-09T15:00:05.075Z,13.30
2023-02-09T15:03:43.299Z,11.20
2023-02-09T15:07:26.679Z,13.40
2023-02-09T15:11:42.760Z,13.30
2023-02-09T15:15:17.029Z,13.90
2023-02-09T15:19:03.262Z,13.90
2023-02-09T15:30:51.272Z,14.00
2023-02-09T15:33:57.500Z,15.20
2023-02-09T15:37:03.110Z,13.30
2023-02-09T15:40:15.438Z,13.10
2023-02-09T15:43:46.196Z,13.60
2023-02-09T15:47:13.658Z,14.70
2023-02-09T15:50:18.366Z,13.10
2023-02-09T15:53:22.779Z,12.70
2023-02-09T15:56:53.079Z,15.80
2023-02-09T16:01:35.091Z,18.30
2023-02-09T16:05:09.821Z,16.30
2023-02-09T16:08:53.484Z,15.80
2023-02-09T16:17:23.677Z,17.20
2023-02-09T16:25:29.366Z,18.20
2023-02-09T16:45:33.099Z,21.90
2023-02-09T16:49:25.089Z,20.10
2023-02-09T16:52:39.363Z,19.70
2023-02-09T16:56:00.755Z,17.90
2023-02-09T16:59:31.249Z,18.70
2023-02-09T17:03:31.200Z,17.70
2023-02-09T17:06:40.048Z,17.60
2023-02-09T17:10:05.214Z,18.70
2023-02-09T17:13:10.065Z,18.50
2023-02-09T17:17:38.430Z,19.60
2023-02-09T17:26:53.222Z,19.60
2023-02-09T17:38:56.349Z,12.30
2023-02-09T17:42:19.989Z,13.30
2023-02-09T17:47:05.547Z,13.00
2023-02-09T17:50:17.372Z,14.10
2023-02-09T17:54:29.026Z,12.00
2023-02-09T17:58:57.373Z,12.50
2023-02-09T18:02:19.309Z,12.50
2023-02-09T18:05:27.866Z,12.60
2023-02-09T18:08:30.832Z,12.70
2023-02-09T18:21:40.273Z,12.50
2023-02-09T18:24:48.917Z,10.40
2023-02-09T18:27:58.641Z,11.10
2023-02-09T18:35:45.769Z,12.50
2023-02-09T18:39:23.947Z,13.90
2023-02-09T18:42:31.273Z,14.30
2023-02-09T18:45:42.180Z,13.70
2023-02-09T18:48:47.410Z,14.80
2023-02-09T18:52:00.210Z,14.10
2023-02-09T18:55:07.691Z,16.30
2023-02-09T18:58:13.144Z,17.00
2023-02-09T19:01:22.601Z,14.20
2023-02-09T19:04:34.689Z,15.70
2023-02-09T19:07:43.687Z,15.40
2023-02-09T19:11:20.303Z,12.10
2023-02-09T19:17:50.989Z,16.50
2023-02-09T19:21:24.624Z,15.70
2023-02-09T19:24:53.326Z,14.40
2023-02-09T19:32:32.310Z,14.70
2023-02-09T19:35:40.923Z,15.40
2023-02-09T19:38:49.505Z,14.90
2023-02-09T19:46:59.048Z,15.00
2023-02-09T19:50:10.417Z,17.00
2023-02-09T19:54:03.081Z,17.30
2023-02-09T19:57:09.513Z,17.90
2023-02-09T20:00:45.950Z,18.80
2023-02-09T20:05:08.791Z,18.10
2023-02-09T20:13:43.254Z,18.50
2023-02-09T20:16:56.716Z,24.60
2023-02-09T20:20:03.752Z,16.70
2023-02-09T20:23:15.143Z,17.40
